sensor_id;sensor_type;location;lat;lon;timestamp;pressure;altitude;pressure_sealevel;temperature;humidity
39729;BME280;25402;42.004;23.088;2023-09-07T00:00:58;97648.09;;;17.01;44.62
39729;BME280;25402;42.004;23.088;2023-09-07T00:03:27;97652.03;;;17.05;44.17
39729;BME280;25402;42.004;23.088;2023-09-07T00:05:54;97651.88;;;17.00;44.78
39729;BME280;25402;42.004;23.088;2023-09-07T00:08:21;97646.56;;;17.05;44.52
39729;BME280;25402;42.004;23.088;2023-09-07T00:10:49;97643.84;;;17.05;44.70
39729;BME280;25402;42.004;23.088;2023-09-07T00:13:16;97638.81;;;17.02;44.85
39729;BME280;25402;42.004;23.088;2023-09-07T00:15:43;97652.97;;;16.99;44.85
39729;BME280;25402;42.004;23.088;2023-09-07T00:18:10;97644.16;;;16.97;44.74
39729;BME280;25402;42.004;23.088;2023-09-07T00:20:39;97633.50;;;16.89;44.81
39729;BME280;25402;42.004;23.088;2023-09-07T00:23:06;97608.41;;;16.74;44.96
39729;BME280;25402;42.004;23.088;2023-09-07T00:25:32;97632.66;;;16.88;44.90
39729;BME280;25402;42.004;23.088;2023-09-07T00:27:59;97645.66;;;16.93;44.69
39729;BME280;25402;42.004;23.088;2023-09-07T00:30:27;97638.81;;;16.84;45.02
39729;BME280;25402;42.004;23.088;2023-09-07T00:32:54;97637.41;;;16.75;44.86
39729;BME280;25402;42.004;23.088;2023-09-07T00:35:21;97636.41;;;16.69;45.08
39729;BME280;25402;42.004;23.088;2023-09-07T00:37:50;97639.69;;;16.78;44.90
39729;BME280;25402;42.004;23.088;2023-09-07T00:40:16;97636.97;;;16.78;45.33
39729;BME280;25402;42.004;23.088;2023-09-07T00:42:43;97636.13;;;16.77;45.11
39729;BME280;25402;42.004;23.088;2023-09-07T00:45:10;97632.16;;;16.73;45.32
39729;BME280;25402;42.004;23.088;2023-09-07T00:47:38;97630.28;;;16.74;45.21
39729;BME280;25402;42.004;23.088;2023-09-07T00:50:06;97633.22;;;16.72;45.69
39729;BME280;25402;42.004;23.088;2023-09-07T00:52:34;97625.53;;;16.62;45.60
39729;BME280;25402;42.004;23.088;2023-09-07T00:55:03;97625.53;;;16.62;45.33
39729;BME280;25402;42.004;23.088;2023-09-07T00:57:31;97634.34;;;16.64;45.25
39729;BME280;25402;42.004;23.088;2023-09-07T00:59:58;97623.81;;;16.68;45.72
39729;BME280;25402;42.004;23.088;2023-09-07T01:02:25;97627.84;;;16.65;45.76
39729;BME280;25402;42.004;23.088;2023-09-07T01:04:52;97627.00;;;16.65;45.66
39729;BME280;25402;42.004;23.088;2023-09-07T01:07:21;97624.50;;;16.63;45.65
39729;BME280;25402;42.004;23.088;2023-09-07T01:09:55;97604.44;;;16.51;46.02
39729;BME280;25402;42.004;23.088;2023-09-07T01:12:24;97621.75;;;16.63;45.76
39729;BME280;25402;42.004;23.088;2023-09-07T01:14:51;97612.31;;;16.59;45.67
39729;BME280;25402;42.004;23.088;2023-09-07T01:17:18;97624.53;;;16.57;45.90
39729;BME280;25402;42.004;23.088;2023-09-07T01:19:48;97608.66;;;16.47;46.37
39729;BME280;25402;42.004;23.088;2023-09-07T01:22:19;97611.56;;;16.52;46.20
39729;BME280;25402;42.004;23.088;2023-09-07T01:24:48;97628.38;;;16.49;46.58
39729;BME280;25402;42.004;23.088;2023-09-07T01:27:17;97632.19;;;16.48;46.53
39729;BME280;25402;42.004;23.088;2023-09-07T01:29:44;97648.13;;;16.51;46.14
39729;BME280;25402;42.004;23.088;2023-09-07T01:32:10;97646.44;;;16.50;46.61
39729;BME280;25402;42.004;23.088;2023-09-07T01:34:39;97640.16;;;16.50;46.59
39729;BME280;25402;42.004;23.088;2023-09-07T01:37:06;97622.16;;;16.36;46.29
39729;BME280;25402;42.004;23.088;2023-09-07T01:39:34;97647.06;;;16.52;46.34
39729;BME280;25402;42.004;23.088;2023-09-07T01:42:02;97636.56;;;16.49;46.61
39729;BME280;25402;42.004;23.088;2023-09-07T01:44:29;97643.94;;;16.49;46.56
39729;BME280;25402;42.004;23.088;2023-09-07T01:46:56;97638.75;;;16.34;46.70
39729;BME280;25402;42.004;23.088;2023-09-07T01:49:23;97638.06;;;16.39;46.74
39729;BME280;25402;42.004;23.088;2023-09-07T01:51:51;97638.47;;;16.42;46.19
39729;BME280;25402;42.004;23.088;2023-09-07T01:54:18;97645.22;;;16.46;46.67
39729;BME280;25402;42.004;23.088;2023-09-07T01:56:48;97646.44;;;16.50;46.63
39729;BME280;25402;42.004;23.088;2023-09-07T01:59:15;97636.59;;;16.43;46.58
39729;BME280;25402;42.004;23.088;2023-09-07T02:01:42;97649.31;;;16.55;46.14
39729;BME280;25402;42.004;23.088;2023-09-07T02:04:09;97643.44;;;16.58;46.25
39729;BME280;25402;42.004;23.088;2023-09-07T02:06:36;97634.63;;;16.56;45.82
39729;BME280;25402;42.004;23.088;2023-09-07T02:09:03;97656.19;;;16.64;46.31
39729;BME280;25402;42.004;23.088;2023-09-07T02:11:30;97648.22;;;16.63;46.08
39729;BME280;25402;42.004;23.088;2023-09-07T02:13:59;97645.44;;;16.70;45.86
39729;BME280;25402;42.004;23.088;2023-09-07T02:16:26;97647.94;;;16.71;45.83
39729;BME280;25402;42.004;23.088;2023-09-07T02:19:03;97647.91;;;16.78;45.86
39729;BME280;25402;42.004;23.088;2023-09-07T02:21:32;97657.16;;;16.77;46.34
39729;BME280;25402;42.004;23.088;2023-09-07T02:24:02;97653.63;;;16.70;46.37
39729;BME280;25402;42.004;23.088;2023-09-07T02:26:29;97633.34;;;16.59;46.21
39729;BME280;25402;42.004;23.088;2023-09-07T02:29:00;97627.44;;;16.62;46.01
39729;BME280;25402;42.004;23.088;2023-09-07T02:31:30;97658.53;;;16.86;46.42
39729;BME280;25402;42.004;23.088;2023-09-07T02:33:58;97652.56;;;16.71;46.75
39729;BME280;25402;42.004;23.088;2023-09-07T02:36:25;97665.16;;;16.72;46.84
39729;BME280;25402;42.004;23.088;2023-09-07T02:38:55;97657.19;;;16.70;46.65
39729;BME280;25402;42.004;23.088;2023-09-07T02:41:22;97636.47;;;16.62;46.86
39729;BME280;25402;42.004;23.088;2023-09-07T02:43:51;97649.84;;;16.71;46.65
39729;BME280;25402;42.004;23.088;2023-09-07T02:46:19;97656.09;;;16.78;46.66
39729;BME280;25402;42.004;23.088;2023-09-07T02:48:46;97660.75;;;16.71;47.45
39729;BME280;25402;42.004;23.088;2023-09-07T02:51:13;97630.94;;;16.44;47.16
39729;BME280;25402;42.004;23.088;2023-09-07T02:53:40;97644.03;;;16.60;46.80
39729;BME280;25402;42.004;23.088;2023-09-07T02:56:07;97642.53;;;16.64;46.85
39729;BME280;25402;42.004;23.088;2023-09-07T02:58:36;97650.31;;;16.67;46.37
39729;BME280;25402;42.004;23.088;2023-09-07T03:01:06;97658.44;;;16.74;46.38
39729;BME280;25402;42.004;23.088;2023-09-07T03:03:38;97659.66;;;16.78;46.41
39729;BME280;25402;42.004;23.088;2023-09-07T03:06:09;97651.34;;;16.66;46.54
39729;BME280;25402;42.004;23.088;2023-09-07T03:08:36;97663.44;;;16.77;46.50
39729;BME280;25402;42.004;23.088;2023-09-07T03:11:05;97649.22;;;16.68;46.68
39729;BME280;25402;42.004;23.088;2023-09-07T03:13:34;97650.53;;;16.66;47.24
39729;BME280;25402;42.004;23.088;2023-09-07T03:16:03;97660.94;;;16.76;46.91
39729;BME280;25402;42.004;23.088;2023-09-07T03:18:30;97654.63;;;16.75;46.69
39729;BME280;25402;42.004;23.088;2023-09-07T03:21:00;97665.97;;;16.79;46.75
39729;BME280;25402;42.004;23.088;2023-09-07T03:24:07;97657.31;;;16.82;46.29
39729;BME280;25402;42.004;23.088;2023-09-07T03:26:34;97664.50;;;16.76;46.67
39729;BME280;25402;42.004;23.088;2023-09-07T03:29:01;97668.91;;;16.77;46.75
39729;BME280;25402;42.004;23.088;2023-09-07T03:31:29;97672.75;;;16.70;46.52
39729;BME280;25402;42.004;23.088;2023-09-07T03:33:56;97672.59;;;16.64;46.65
39729;BME280;25402;42.004;23.088;2023-09-07T03:36:24;97678.47;;;16.68;46.86
39729;BME280;25402;42.004;23.088;2023-09-07T03:38:51;97681.19;;;16.68;46.85
39729;BME280;25402;42.004;23.088;2023-09-07T03:41:18;97673.88;;;16.62;47.01
39729;BME280;25402;42.004;23.088;2023-09-07T03:43:45;97681.84;;;16.63;46.94
39729;BME280;25402;42.004;23.088;2023-09-07T03:46:12;97663.03;;;16.49;46.75
39729;BME280;25402;42.004;23.088;2023-09-07T03:48:39;97687.75;;;16.60;46.50
39729;BME280;25402;42.004;23.088;2023-09-07T03:51:07;97678.53;;;16.55;45.86
39729;BME280;25402;42.004;23.088;2023-09-07T03:53:35;97682.91;;;16.62;46.28
39729;BME280;25402;42.004;23.088;2023-09-07T03:56:03;97663.16;;;16.60;46.48
39729;BME280;25402;42.004;23.088;2023-09-07T03:58:30;97666.19;;;16.52;46.29
39729;BME280;25402;42.004;23.088;2023-09-07T04:00:59;97684.56;;;16.63;46.77
39729;BME280;25402;42.004;23.088;2023-09-07T04:03:26;97693.00;;;16.62;46.40
39729;BME280;25402;42.004;23.088;2023-09-07T04:05:53;97669.50;;;16.54;46.74
39729;BME280;25402;42.004;23.088;2023-09-07T04:08:20;97682.28;;;16.60;46.80
39729;BME280;25402;42.004;23.088;2023-09-07T04:10:48;97697.41;;;16.63;46.84
39729;BME280;25402;42.004;23.088;2023-09-07T04:13:15;97685.94;;;16.48;46.42
39729;BME280;25402;42.004;23.088;2023-09-07T04:15:43;97700.16;;;16.56;46.88
39729;BME280;25402;42.004;23.088;2023-09-07T04:18:10;97702.44;;;16.59;46.70
39729;BME280;25402;42.004;23.088;2023-09-07T04:20:38;97687.56;;;16.55;46.68
39729;BME280;25402;42.004;23.088;2023-09-07T04:23:05;97704.47;;;16.71;46.77
39729;BME280;25402;42.004;23.088;2023-09-07T04:25:32;97716.84;;;16.73;46.27
39729;BME280;25402;42.004;23.088;2023-09-07T04:28:00;97717.28;;;16.70;46.55
39729;BME280;25402;42.004;23.088;2023-09-07T04:30:27;97686.72;;;16.55;46.59
39729;BME280;25402;42.004;23.088;2023-09-07T04:32:54;97692.56;;;16.65;46.32
39729;BME280;25402;42.004;23.088;2023-09-07T04:35:26;97711.78;;;16.77;46.28
39729;BME280;25402;42.004;23.088;2023-09-07T04:37:53;97709.06;;;16.77;46.42
39729;BME280;25402;42.004;23.088;2023-09-07T04:40:20;97689.31;;;16.75;46.05
39729;BME280;25402;42.004;23.088;2023-09-07T04:42:48;97719.41;;;16.99;46.26
39729;BME280;25402;42.004;23.088;2023-09-07T04:45:17;97723.50;;;16.84;46.01
39729;BME280;25402;42.004;23.088;2023-09-07T04:47:44;97719.31;;;16.81;46.14
39729;BME280;25402;42.004;23.088;2023-09-07T04:50:11;97729.50;;;16.99;46.29
39729;BME280;25402;42.004;23.088;2023-09-07T04:52:38;97736.16;;;17.03;45.92
39729;BME280;25402;42.004;23.088;2023-09-07T04:55:30;97738.00;;;17.09;46.24
39729;BME280;25402;42.004;23.088;2023-09-07T04:58:10;97729.94;;;17.21;45.57
39729;BME280;25402;42.004;23.088;2023-09-07T05:00:39;97721.81;;;17.14;45.62
39729;BME280;25402;42.004;23.088;2023-09-07T05:03:06;97728.72;;;17.17;45.74
39729;BME280;25402;42.004;23.088;2023-09-07T05:05:33;97729.09;;;17.20;45.60
39729;BME280;25402;42.004;23.088;2023-09-07T05:08:02;97734.66;;;17.32;45.66
39729;BME280;25402;42.004;23.088;2023-09-07T05:10:33;97731.88;;;17.39;45.12
39729;BME280;25402;42.004;23.088;2023-09-07T05:13:00;97714.63;;;17.38;45.46
39729;BME280;25402;42.004;23.088;2023-09-07T05:15:27;97732.91;;;17.62;44.95
39729;BME280;25402;42.004;23.088;2023-09-07T05:17:55;97735.09;;;17.72;45.18
39729;BME280;25402;42.004;23.088;2023-09-07T05:20:22;97730.63;;;17.78;44.79
39729;BME280;25402;42.004;23.088;2023-09-07T05:22:57;97726.94;;;17.90;45.11
39729;BME280;25402;42.004;23.088;2023-09-07T05:25:32;97733.97;;;17.98;44.67
39729;BME280;25402;42.004;23.088;2023-09-07T05:27:59;97722.06;;;17.92;44.65
39729;BME280;25402;42.004;23.088;2023-09-07T05:30:26;97730.56;;;18.02;44.54
39729;BME280;25402;42.004;23.088;2023-09-07T05:32:55;97735.25;;;18.14;44.17
39729;BME280;25402;42.004;23.088;2023-09-07T05:35:22;97733.91;;;18.23;43.84
39729;BME280;25402;42.004;23.088;2023-09-07T05:37:52;97721.66;;;18.25;43.85
39729;BME280;25402;42.004;23.088;2023-09-07T05:40:19;97743.16;;;18.40;43.66
39729;BME280;25402;42.004;23.088;2023-09-07T05:42:46;97744.50;;;18.49;43.56
39729;BME280;25402;42.004;23.088;2023-09-07T05:45:13;97743.09;;;18.58;43.50
39729;BME280;25402;42.004;23.088;2023-09-07T05:47:40;97735.63;;;18.65;43.24
39729;BME280;25402;42.004;23.088;2023-09-07T05:50:09;97738.88;;;18.74;43.52
39729;BME280;25402;42.004;23.088;2023-09-07T05:52:36;97741.28;;;18.82;43.18
39729;BME280;25402;42.004;23.088;2023-09-07T05:55:04;97745.47;;;18.85;43.12
39729;BME280;25402;42.004;23.088;2023-09-07T05:57:31;97741.06;;;18.84;42.97
39729;BME280;25402;42.004;23.088;2023-09-07T05:59:57;97742.25;;;18.88;42.99
39729;BME280;25402;42.004;23.088;2023-09-07T06:02:24;97726.66;;;18.88;43.05
39729;BME280;25402;42.004;23.088;2023-09-07T06:04:52;97737.16;;;19.03;42.81
39729;BME280;25402;42.004;23.088;2023-09-07T06:07:20;97736.84;;;19.11;42.48
39729;BME280;25402;42.004;23.088;2023-09-07T06:09:48;97726.94;;;19.10;42.16
39729;BME280;25402;42.004;23.088;2023-09-07T06:12:15;97743.78;;;19.25;41.74
39729;BME280;25402;42.004;23.088;2023-09-07T06:14:42;97754.63;;;19.20;42.48
39729;BME280;25402;42.004;23.088;2023-09-07T06:17:10;97757.47;;;19.25;42.15
39729;BME280;25402;42.004;23.088;2023-09-07T06:19:38;97746.50;;;19.37;42.30
39729;BME280;25402;42.004;23.088;2023-09-07T06:22:09;97746.78;;;19.47;42.15
39729;BME280;25402;42.004;23.088;2023-09-07T06:24:41;97752.38;;;19.64;41.74
39729;BME280;25402;42.004;23.088;2023-09-07T06:27:09;97750.59;;;19.81;41.73
39729;BME280;25402;42.004;23.088;2023-09-07T06:29:37;97751.41;;;19.93;41.74
39729;BME280;25402;42.004;23.088;2023-09-07T06:32:05;97751.63;;;20.03;41.43
39729;BME280;25402;42.004;23.088;2023-09-07T06:34:33;97754.09;;;20.17;41.12
39729;BME280;25402;42.004;23.088;2023-09-07T06:36:59;97762.16;;;19.95;39.96
39729;BME280;25402;42.004;23.088;2023-09-07T06:39:26;97753.47;;;19.74;40.13
39729;BME280;25402;42.004;23.088;2023-09-07T06:41:55;97731.84;;;19.55;40.38
39729;BME280;25402;42.004;23.088;2023-09-07T06:44:23;97754.78;;;19.72;40.09
39729;BME280;25402;42.004;23.088;2023-09-07T06:46:50;97759.88;;;19.68;39.89
39729;BME280;25402;42.004;23.088;2023-09-07T06:49:17;97753.31;;;19.58;40.14
39729;BME280;25402;42.004;23.088;2023-09-07T06:51:44;97753.53;;;19.68;40.01
39729;BME280;25402;42.004;23.088;2023-09-07T06:54:12;97761.09;;;19.72;40.00
39729;BME280;25402;42.004;23.088;2023-09-07T06:56:39;97741.41;;;19.75;39.91
39729;BME280;25402;42.004;23.088;2023-09-07T06:59:08;97758.53;;;20.06;39.44
39729;BME280;25402;42.004;23.088;2023-09-07T07:01:35;97743.16;;;20.05;38.94
39729;BME280;25402;42.004;23.088;2023-09-07T07:04:02;97714.38;;;20.07;38.93
39729;BME280;25402;42.004;23.088;2023-09-07T07:06:29;97741.41;;;20.27;38.76
39729;BME280;25402;42.004;23.088;2023-09-07T07:08:57;97732.88;;;20.12;38.41
39729;BME280;25402;42.004;23.088;2023-09-07T07:11:25;97744.41;;;20.26;38.64
39729;BME280;25402;42.004;23.088;2023-09-07T07:13:52;97729.91;;;19.90;38.75
39729;BME280;25402;42.004;23.088;2023-09-07T07:16:21;97736.69;;;19.99;38.52
39729;BME280;25402;42.004;23.088;2023-09-07T07:18:47;97748.13;;;20.20;38.40
39729;BME280;25402;42.004;23.088;2023-09-07T07:21:16;97734.97;;;20.33;38.29
39729;BME280;25402;42.004;23.088;2023-09-07T07:23:43;97744.28;;;20.32;37.82
39729;BME280;25402;42.004;23.088;2023-09-07T07:26:10;97749.41;;;20.40;37.59
39729;BME280;25402;42.004;23.088;2023-09-07T07:28:37;97758.25;;;20.31;38.10
39729;BME280;25402;42.004;23.088;2023-09-07T07:31:07;97749.88;;;20.37;37.79
39729;BME280;25402;42.004;23.088;2023-09-07T07:33:36;97739.44;;;20.51;37.49
39729;BME280;25402;42.004;23.088;2023-09-07T07:36:04;97751.66;;;20.72;37.33
39729;BME280;25402;42.004;23.088;2023-09-07T07:38:31;97754.22;;;20.62;37.18
39729;BME280;25402;42.004;23.088;2023-09-07T07:40:58;97754.53;;;20.65;37.09
39729;BME280;25402;42.004;23.088;2023-09-07T07:43:25;97747.09;;;20.77;36.22
39729;BME280;25402;42.004;23.088;2023-09-07T07:45:54;97759.09;;;20.88;35.94
39729;BME280;25402;42.004;23.088;2023-09-07T07:48:21;97754.25;;;21.07;36.11
39729;BME280;25402;42.004;23.088;2023-09-07T07:50:50;97759.56;;;21.30;35.97
39729;BME280;25402;42.004;23.088;2023-09-07T07:53:17;97760.44;;;21.47;34.73
39729;BME280;25402;42.004;23.088;2023-09-07T07:55:43;97756.69;;;21.54;35.08
39729;BME280;25402;42.004;23.088;2023-09-07T07:58:11;97744.97;;;21.63;34.85
39729;BME280;25402;42.004;23.088;2023-09-07T08:00:38;97745.91;;;21.69;33.78
39729;BME280;25402;42.004;23.088;2023-09-07T08:03:06;97746.06;;;22.01;33.76
39729;BME280;25402;42.004;23.088;2023-09-07T08:05:34;97751.34;;;22.24;33.36
39729;BME280;25402;42.004;23.088;2023-09-07T08:08:03;97757.63;;;22.41;32.29
39729;BME280;25402;42.004;23.088;2023-09-07T08:10:33;97760.38;;;22.41;31.69
39729;BME280;25402;42.004;23.088;2023-09-07T08:13:02;97760.56;;;22.57;31.75
39729;BME280;25402;42.004;23.088;2023-09-07T08:15:32;97761.22;;;22.91;30.39
39729;BME280;25402;42.004;23.088;2023-09-07T08:18:00;97752.69;;;22.92;31.05
39729;BME280;25402;42.004;23.088;2023-09-07T08:20:32;97751.59;;;22.93;31.11
39729;BME280;25402;42.004;23.088;2023-09-07T08:22:59;97757.63;;;22.90;30.52
39729;BME280;25402;42.004;23.088;2023-09-07T08:25:30;97746.53;;;22.85;31.13
39729;BME280;25402;42.004;23.088;2023-09-07T08:27:57;97723.56;;;23.06;30.43
39729;BME280;25402;42.004;23.088;2023-09-07T08:30:25;97739.53;;;23.31;29.54
39729;BME280;25402;42.004;23.088;2023-09-07T08:32:52;97742.03;;;23.33;29.35
39729;BME280;25402;42.004;23.088;2023-09-07T08:35:20;97746.50;;;23.39;29.68
39729;BME280;25402;42.004;23.088;2023-09-07T08:37:53;97721.50;;;23.55;29.28
39729;BME280;25402;42.004;23.088;2023-09-07T08:40:23;97749.63;;;23.52;28.86
39729;BME280;25402;42.004;23.088;2023-09-07T08:42:54;97723.94;;;23.52;28.85
39729;BME280;25402;42.004;23.088;2023-09-07T08:45:21;97739.09;;;23.44;28.53
39729;BME280;25402;42.004;23.088;2023-09-07T08:47:49;97726.81;;;23.67;28.59
39729;BME280;25402;42.004;23.088;2023-09-07T08:50:17;97734.22;;;23.56;28.32
39729;BME280;25402;42.004;23.088;2023-09-07T08:52:46;97732.81;;;23.54;28.01
39729;BME280;25402;42.004;23.088;2023-09-07T08:55:16;97736.97;;;23.56;27.73
39729;BME280;25402;42.004;23.088;2023-09-07T08:57:47;97741.53;;;23.78;28.00
39729;BME280;25402;42.004;23.088;2023-09-07T09:00:16;97723.69;;;23.90;27.48
39729;BME280;25402;42.004;23.088;2023-09-07T09:02:46;97725.34;;;23.97;27.19
39729;BME280;25402;42.004;23.088;2023-09-07T09:05:14;97701.31;;;23.92;26.95
39729;BME280;25402;42.004;23.088;2023-09-07T09:07:43;97720.97;;;24.06;27.34
39729;BME280;25402;42.004;23.088;2023-09-07T09:10:10;97743.09;;;24.11;27.26
39729;BME280;25402;42.004;23.088;2023-09-07T09:12:45;97733.81;;;24.27;27.08
39729;BME280;25402;42.004;23.088;2023-09-07T09:15:12;97738.84;;;24.45;26.88
39729;BME280;25402;42.004;23.088;2023-09-07T09:17:41;97737.78;;;24.61;26.29
39729;BME280;25402;42.004;23.088;2023-09-07T09:20:20;97730.06;;;24.64;25.99
39729;BME280;25402;42.004;23.088;2023-09-07T09:22:48;97728.09;;;24.49;24.41
39729;BME280;25402;42.004;23.088;2023-09-07T09:25:16;97737.00;;;24.04;25.62
39729;BME280;25402;42.004;23.088;2023-09-07T09:27:43;97726.94;;;24.35;26.41
39729;BME280;25402;42.004;23.088;2023-09-07T09:30:11;97720.72;;;24.07;26.97
39729;BME280;25402;42.004;23.088;2023-09-07T09:32:42;97724.13;;;24.30;26.67
39729;BME280;25402;42.004;23.088;2023-09-07T09:35:09;97717.81;;;24.44;26.20
39729;BME280;25402;42.004;23.088;2023-09-07T09:37:46;97719.28;;;24.67;26.13
39729;BME280;25402;42.004;23.088;2023-09-07T09:40:15;97723.22;;;24.97;25.83
39729;BME280;25402;42.004;23.088;2023-09-07T09:42:44;97716.03;;;25.21;25.60
39729;BME280;25402;42.004;23.088;2023-09-07T09:45:14;97722.16;;;25.48;25.18
39729;BME280;25402;42.004;23.088;2023-09-07T09:47:42;97705.22;;;25.60;25.21
39729;BME280;25402;42.004;23.088;2023-09-07T09:50:11;97707.66;;;25.87;24.84
39729;BME280;25402;42.004;23.088;2023-09-07T09:52:39;97688.53;;;25.90;24.09
39729;BME280;25402;42.004;23.088;2023-09-07T09:55:07;97709.28;;;26.08;24.25
39729;BME280;25402;42.004;23.088;2023-09-07T09:57:38;97695.75;;;25.86;23.70
39729;BME280;25402;42.004;23.088;2023-09-07T10:00:06;97699.88;;;25.99;24.21
39729;BME280;25402;42.004;23.088;2023-09-07T10:02:51;97683.72;;;26.16;23.80
39729;BME280;25402;42.004;23.088;2023-09-07T10:05:21;97684.25;;;26.23;23.65
39729;BME280;25402;42.004;23.088;2023-09-07T10:07:51;97694.78;;;26.26;23.48
39729;BME280;25402;42.004;23.088;2023-09-07T10:10:19;97681.56;;;26.08;22.30
39729;BME280;25402;42.004;23.088;2023-09-07T10:12:52;97675.50;;;25.96;22.49
39729;BME280;25402;42.004;23.088;2023-09-07T10:15:24;97681.09;;;25.76;23.81
39729;BME280;25402;42.004;23.088;2023-09-07T10:18:05;97681.94;;;25.66;24.33
39729;BME280;25402;42.004;23.088;2023-09-07T10:20:48;97675.91;;;25.49;24.47
39729;BME280;25402;42.004;23.088;2023-09-07T10:23:16;97671.72;;;25.26;24.55
39729;BME280;25402;42.004;23.088;2023-09-07T10:25:50;97680.31;;;25.04;23.59
39729;BME280;25402;42.004;23.088;2023-09-07T10:28:19;97684.50;;;24.86;24.05
39729;BME280;25402;42.004;23.088;2023-09-07T10:30:57;97681.16;;;25.15;24.41
39729;BME280;25402;42.004;23.088;2023-09-07T10:33:56;97683.91;;;25.10;23.84
39729;BME280;25402;42.004;23.088;2023-09-07T10:37:31;97680.31;;;25.04;23.90
39729;BME280;25402;42.004;23.088;2023-09-07T10:39:50;97675.22;;;24.30;24.95
39729;BME280;25402;42.004;23.088;2023-09-07T10:42:22;97669.66;;;23.68;25.16
39729;BME280;25402;42.004;23.088;2023-09-07T10:44:49;97678.00;;;23.78;25.65
39729;BME280;25402;42.004;23.088;2023-09-07T10:47:16;97678.00;;;23.73;26.01
39729;BME280;25402;42.004;23.088;2023-09-07T10:49:46;97661.06;;;23.59;26.41
39729;BME280;25402;42.004;23.088;2023-09-07T10:52:13;97697.25;;;23.68;25.91
39729;BME280;25402;42.004;23.088;2023-09-07T10:54:40;97680.31;;;23.12;26.41
39729;BME280;25402;42.004;23.088;2023-09-07T10:57:08;97684.41;;;23.41;26.67
39729;BME280;25402;42.004;23.088;2023-09-07T10:59:36;97687.13;;;23.36;26.03
39729;BME280;25402;42.004;23.088;2023-09-07T11:02:04;97670.84;;;23.77;25.87
39729;BME280;25402;42.004;23.088;2023-09-07T11:04:31;97673.66;;;23.87;25.77
39729;BME280;25402;42.004;23.088;2023-09-07T11:07:01;97662.41;;;24.14;25.45
39729;BME280;25402;42.004;23.088;2023-09-07T11:09:30;97691.25;;;24.23;25.32
39729;BME280;25402;42.004;23.088;2023-09-07T11:12:03;97684.56;;;24.19;25.13
39729;BME280;25402;42.004;23.088;2023-09-07T11:14:30;97663.84;;;23.22;25.78
39729;BME280;25402;42.004;23.088;2023-09-07T11:16:57;97684.06;;;23.70;25.58
39729;BME280;25402;42.004;23.088;2023-09-07T11:19:24;97679.38;;;23.70;25.92
39729;BME280;25402;42.004;23.088;2023-09-07T11:21:53;97678.06;;;23.88;26.08
39729;BME280;25402;42.004;23.088;2023-09-07T11:24:21;97688.41;;;23.61;26.52
39729;BME280;25402;42.004;23.088;2023-09-07T11:26:49;97676.16;;;23.88;25.92
39729;BME280;25402;42.004;23.088;2023-09-07T11:29:17;97678.72;;;23.58;25.55
39729;BME280;25402;42.004;23.088;2023-09-07T11:31:45;97680.38;;;23.59;26.93
39729;BME280;25402;42.004;23.088;2023-09-07T11:34:12;97690.19;;;23.40;26.79
39729;BME280;25402;42.004;23.088;2023-09-07T11:36:41;97671.28;;;23.64;26.76
39729;BME280;25402;42.004;23.088;2023-09-07T11:39:09;97678.38;;;23.49;27.08
39729;BME280;25402;42.004;23.088;2023-09-07T11:41:40;97689.66;;;23.85;26.66
39729;BME280;25402;42.004;23.088;2023-09-07T11:44:08;97670.28;;;23.75;26.71
39729;BME280;25402;42.004;23.088;2023-09-07T11:46:36;97659.22;;;23.75;26.31
39729;BME280;25402;42.004;23.088;2023-09-07T11:49:04;97697.03;;;23.00;27.34
39729;BME280;25402;42.004;23.088;2023-09-07T11:51:31;97665.94;;;23.10;27.27
39729;BME280;25402;42.004;23.088;2023-09-07T11:53:58;97645.63;;;23.21;26.90
39729;BME280;25402;42.004;23.088;2023-09-07T11:56:25;97674.75;;;23.07;27.25
39729;BME280;25402;42.004;23.088;2023-09-07T11:58:54;97642.09;;;22.99;27.04
39729;BME280;25402;42.004;23.088;2023-09-07T12:01:21;97677.22;;;23.40;26.97
39729;BME280;25402;42.004;23.088;2023-09-07T12:03:51;97658.50;;;22.78;27.87
39729;BME280;25402;42.004;23.088;2023-09-07T12:06:20;97678.84;;;22.18;29.13
39729;BME280;25402;42.004;23.088;2023-09-07T12:08:59;97662.06;;;21.60;29.61
39729;BME280;25402;42.004;23.088;2023-09-07T12:11:27;97661.19;;;21.76;29.89
39729;BME280;25402;42.004;23.088;2023-09-07T12:13:56;97679.03;;;21.35;30.35
39729;BME280;25402;42.004;23.088;2023-09-07T12:16:25;97676.91;;;21.59;30.21
39729;BME280;25402;42.004;23.088;2023-09-07T12:18:52;97672.91;;;21.66;29.93
39729;BME280;25402;42.004;23.088;2023-09-07T12:21:19;97660.06;;;21.72;29.47
39729;BME280;25402;42.004;23.088;2023-09-07T12:23:47;97663.28;;;21.47;29.59
39729;BME280;25402;42.004;23.088;2023-09-07T12:26:14;97617.13;;;20.99;29.89
39729;BME280;25402;42.004;23.088;2023-09-07T12:28:42;97625.44;;;21.21;30.16
39729;BME280;25402;42.004;23.088;2023-09-07T12:31:11;97655.16;;;22.01;29.11
39729;BME280;25402;42.004;23.088;2023-09-07T12:33:39;97662.00;;;21.76;29.39
39729;BME280;25402;42.004;23.088;2023-09-07T12:36:06;97645.63;;;21.65;30.71
39729;BME280;25402;42.004;23.088;2023-09-07T12:38:35;97656.50;;;21.76;31.45
39729;BME280;25402;42.004;23.088;2023-09-07T12:41:03;97685.00;;;21.65;31.50
39729;BME280;25402;42.004;23.088;2023-09-07T12:43:31;97659.13;;;21.88;30.73
39729;BME280;25402;42.004;23.088;2023-09-07T12:45:59;97637.19;;;22.15;29.68
39729;BME280;25402;42.004;23.088;2023-09-07T12:48:28;97668.50;;;22.31;29.11
39729;BME280;25402;42.004;23.088;2023-09-07T12:50:56;97653.38;;;22.60;28.68
39729;BME280;25402;42.004;23.088;2023-09-07T12:53:23;97651.09;;;22.84;28.63
39729;BME280;25402;42.004;23.088;2023-09-07T12:55:51;97646.88;;;23.08;28.35
39729;BME280;25402;42.004;23.088;2023-09-07T12:58:19;97649.75;;;22.60;28.10